Tiempo atmosférico en la estación meteorológica de Garrucha, Puerto, Almería (12 m.)



Fecha
DESCASC
Temp. máxima en grados centígrados (hora)
DESCASC
Temp. mínima en grados centígrados (hora)
DESCASC
Temp. media en grados centígrados
DESCASC
Racha de viento máxima en m/sg (hora)
DESCASC
Velocidad máxima media en intervalos de 10 minutos(hora)
DESCASC
Precipitaciones diarias en mm
DESCASC
Precipitaciones de 00:00 a 06:00 en mm
DESCASC
Precipitaciones de 06:00 a 12:00 en mm
DESCASC
Precipitaciones de 12:00 a 18:00 en mm
DESCASC
Precipitaciones de 18:00 a 24:00 en mm
DESCASC
16-01-2020 16.2 (12:00) 7.6 (05:00) 11.9 8.89 (17:10) 7.5 (17:10) 0 0 0 0 0
15-01-2020 16 (13:00) 6.8 (08:20) 11.4 7.78 (17:20) 6.94 (17:10) 0 0 0 0 0
14-01-2020 15.3 (17:00) 5.6 (06:10) 10.5 6.67 (14:50) 5.83 (14:50) 0 0 0 0 0
13-01-2020 15 (16:40) 5.1 (06:10) 10 14.44 (15:50) 10.28 (14:40) 0 0 0 0 0
12-01-2020 15.2 (17:30) 5.8 (00:00) 10.5 10 (15:10) 8.89 (15:10) 0 0 0 0 0
11-01-2020 16.1 (12:50) 9.6 (00:00) 12.9 8.06 (05:00) 6.67 (18:30) 0 0 0 0 0
10-01-2020 15.3 (15:00) 7.7 (00:00) 11.5 8.33 (14:20) 7.22 (16:00) 0 0 0 0 0
09-01-2020 15.6 (12:40) 8.3 (00:00) 12 6.94 (18:10) 6.11 (18:10) 0 0 0 0 0
08-01-2020 14.1 (15:00) 6.7 (00:00) 10.4 5.56 (23:59) 4.17 (23:59) 0 0 0 0 0
07-01-2020 14.2 (12:30) 5.5 (00:00) 9.8 7.22 (17:50) 6.39 (18:00) 0 0 0 0 0
06-01-2020 14.8 (12:30) 6 (00:00) 10.4 6.39 (07:10) 5 (16:10) 0 0 0 0 0
05-01-2020 15 (14:10) 6.1 (00:00) 10.5 6.39 (03:20) 5.28 (17:40) 0 0 0 0 0
04-01-2020 13.4 (16:30) 8.5 (00:00) 10.9 6.67 (03:00) 5 (03:10) 0 0 0 0 0
03-01-2020 15.6 (17:00) 6.1 (00:00) 10.9 7.5 (16:10) 6.11 (16:20) 0 0 0 0 0
02-01-2020 13.9 (15:20) 8.7 (00:00) 11.3 6.11 (05:00) 4.72 (05:00) 0 0 0 0 0
01-01-2020 15.6 (12:20) 6.7 (00:00) 11.2 5.56 (02:20) 4.17 (02:30) 0 0 0 0 0
31-12-2019 14.6 (14:30) 7.6 (00:00) 11.1 6.67 (05:30) 5.28 (05:30) 0 0 0 0 0
30-12-2019 -- (--) -- (--) -- -- (--) -- (--) -- 0 0 -- 0
29-12-2019 16.8 (13:50) 8.6 (00:00) 12.7 6.39 (03:30) 4.44 (03:30) 0 0 0 0 0
28-12-2019 16.5 (12:30) 7.9 (00:00) 12.2 7.78 (16:40) 6.67 (16:10) 0 0 0 0 0
27-12-2019 17 (12:10) 11 (00:00) 14 6.94 (07:20) 4.72 (08:00) 0 0 0 0 0
26-12-2019 19.2 (11:40) 9.8 (00:00) 14.5 5.56 (00:10) 4.44 (00:10) 0 0 0 0 0
25-12-2019 18.7 (13:00) 10.2 (00:00) 14.5 7.22 (05:20) 5.83 (05:20) 0 0 0 0 0
24-12-2019 19.4 (13:30) 10.3 (00:00) 14.8 6.94 (02:00) 5.83 (01:40) 0 0 0 0 0
23-12-2019 20.4 (01:10) 11.5 (00:00) 15.9 12.5 (04:50) 9.72 (04:50) 0 0 0 0 0
22-12-2019 21.9 (00:00) 15.4 (00:00) 18.6 14.72 (20:40) 8.33 (13:00) 0 0 0 0 0
21-12-2019 24.5 (15:20) 17.9 (00:00) 21.2 15.28 (13:40) 8.89 (13:50) 0 0 0 0 0

Gráficas

Temp. máximas Temp. mínimas Temp. medias Precipitaciones Rachas de viento máximas Velocidades máximas media en intervalos de 10 minutos

Datos horarios

Fecha y hora oficial Temperatura (ºC) Velocidad del viento (km/h) Dirección del viento Racha (km/h) Dirección de racha Precipitación (mm) Presión (hPa) Tendencia (hPa) Humedad (%)
2020-01-19 23:00:00 8.1 19 Noroeste 33 Noroeste 0.6 -- -- 80
2020-01-19 22:00:00 8.1 28 Noroeste 55 Noroeste 0 -- -- 77
2020-01-19 21:00:00 9.6 29 Norte 48 Noroeste 0 -- -- 67
2020-01-19 20:00:00 10.7 24 Norte 40 Norte 0 -- -- 60
2020-01-19 19:00:00 10.9 21 Noroeste 41 Norte 0 -- -- 59
2020-01-19 18:00:00 12.2 25 Norte 50 Norte 0 -- -- 57
2020-01-19 17:00:00 13.5 31 Norte 44 Norte 0 -- -- 56
2020-01-19 16:00:00 14.5 28 Norte 40 Norte 0 -- -- 57
2020-01-19 15:00:00 15.7 20 Norte 35 Noroeste 0 -- -- 45
2020-01-19 14:00:00 16 18 Noroeste 43 Oeste 0 -- -- 44
2020-01-19 13:00:00 15.7 22 Noroeste 36 Noroeste 0 -- -- 46
2020-01-19 12:00:00 15 26 Noroeste 44 Noroeste 0 -- -- 50
2020-01-19 11:00:00 13.9 24 Noroeste 42 Oeste 0 -- -- 57
2020-01-19 10:00:00 13.4 11 Norte 23 Noroeste 0 -- -- 59
2020-01-19 09:00:00 11.7 18 Noroeste 36 Oeste 0 -- -- 63
2020-01-19 08:00:00 13.6 22 Noroeste 34 Noroeste 0 -- -- 62
2020-01-19 07:00:00 13.3 18 Noroeste 33 Noroeste 0 -- -- 67
2020-01-19 06:00:00 11.2 8 Oeste 14 Sudoeste 0 -- -- 87
2020-01-19 05:00:00 11.9 5 Noroeste 12 Sudoeste 0.2 -- -- 86
2020-01-19 04:00:00 11.9 7 Oeste 13 Sudoeste 0 -- -- 88
2020-01-19 03:00:00 12 6 Sur 24 Oeste 0 -- -- 88
2020-01-19 02:00:00 10.2 19 Oeste 24 Oeste 0 -- -- 91
2020-01-19 01:00:00 12 12 Oeste 21 Sudoeste 0 -- -- 83
2020-01-19 00:00:00 12.7 9 Sudoeste 30 Oeste 0 -- -- 79
2020-01-18 23:00:00 13 6 Oeste 23 Sur 0 -- -- 79
2020-01-18 22:00:00 14.3 14 Sudoeste 32 Sudoeste 0 -- -- 73
2020-01-18 21:00:00 13.8 15 Sudoeste 28 Sudoeste 0 -- -- 77
2020-01-18 20:00:00 13.5 7 Sudoeste 14 Sur 0 -- -- 80
2020-01-18 19:00:00 12.9 4 Oeste 11 Sur 0 -- -- 87
2020-01-18 18:00:00 14.3 12 Sur 19 Sur 0 -- -- 84
2020-01-18 17:00:00 13.8 11 Sur 19 Sudeste 0 -- -- 86
2020-01-18 16:00:00 13.5 15 Sudeste 18 Sudeste 0 -- -- 85
2020-01-18 15:00:00 12.2 10 Sudoeste 14 Sudoeste 0 -- -- 87
2020-01-18 14:00:00 12.5 5 Noroeste 10 Sur 0.4 -- -- 83
2020-01-18 13:00:00 12.5 5 Oeste 21 Noroeste 0.6 -- -- 79
2020-01-18 12:00:00 13.9 15 Noroeste 22 Noroeste 0 -- -- 63
2020-01-18 11:00:00 12.9 12 Noroeste 14 Oeste 0 -- -- 67
2020-01-18 10:00:00 11.6 12 Noroeste 19 Noroeste 0 -- -- 70
2020-01-18 09:00:00 11 9 Noroeste 22 Oeste 0 -- -- 71
2020-01-18 08:00:00 11 14 Oeste 20 Oeste 0 -- -- 71
2020-01-18 07:00:00 11.2 7 Oeste 17 Oeste 0 -- -- 72
2020-01-18 06:00:00 10.5 7 Oeste 15 Noroeste 0 -- -- 72
2020-01-18 05:00:00 10.8 5 Noroeste 14 Noroeste 0 -- -- 71
2020-01-18 04:00:00 11.5 4 Oeste 14 Oeste 0 -- -- 73
2020-01-18 03:00:00 11.7 6 Noroeste 15 Oeste 0 -- -- 73
2020-01-18 02:00:00 11.9 12 Noroeste 20 Oeste 0 -- -- 75
2020-01-18 01:00:00 11.6 14 Noroeste 17 Oeste 0 -- -- 79
2020-01-18 00:00:00 11.3 12 Noroeste 15 Noroeste 0 -- -- 85
2020-01-17 23:00:00 12.1 4 Oeste 13 Oeste 0 -- -- 91
2020-01-17 22:00:00 12.5 9 Oeste 14 Oeste 0 -- -- 90
2020-01-17 21:00:00 13.3 10 Oeste 15 Oeste 0 -- -- 94
2020-01-17 20:00:00 13.6 12 Noroeste 15 Oeste 0 -- -- 92
2020-01-17 19:00:00 14.4 5 Oeste 32 Sur 0 -- -- 89
2020-01-17 18:00:00 15 26 Sudeste 33 Sur 0 -- -- 93
2020-01-17 17:00:00 15.1 28 Sur 35 Sur 0 -- -- 93
2020-01-17 16:00:00 15.2 31 Sur 37 Sur 0 -- -- 91
2020-01-17 15:00:00 15.1 31 Sur 35 Sur 0 -- -- 90
2020-01-17 14:00:00 15.1 27 Sur 31 Sur 0 -- -- 86
2020-01-17 13:00:00 15.1 18 Sur 22 Sur 0 -- -- 77
2020-01-17 12:00:00 14.8 8 Sudeste 11 Este 0 -- -- 71
2020-01-17 11:00:00 15.1 0 Calma 12 Sudeste 0 -- -- 56
2020-01-17 10:00:00 13.1 6 Oeste 28 Sudoeste 0 -- -- 53
2020-01-17 09:00:00 11.4 19 Oeste 25 Oeste 0 -- -- 57
2020-01-17 08:00:00 10.7 16 Oeste 27 Oeste 0 -- -- 59
2020-01-17 07:00:00 9.8 14 Oeste 20 Sudoeste 0 -- -- 64
2020-01-17 06:00:00 9.2 9 Oeste 20 Oeste 0 -- -- 70
2020-01-17 05:00:00 8.6 15 Noroeste 21 Oeste 0 -- -- 68
2020-01-17 04:00:00 10 12 Noroeste 17 Oeste 0 -- -- 65
2020-01-17 03:00:00 9.2 9 Oeste 22 Noroeste 0 -- -- 72
2020-01-17 02:00:00 8.9 13 Noroeste 17 Noroeste 0 -- -- 72
2020-01-17 01:00:00 10.2 9 Oeste 18 Oeste 0 -- -- 73
2020-01-17 00:00:00 9.5 12 Noroeste 18 Oeste 0 -- -- 77
2020-01-16 23:00:00 11.2 13 Oeste 16 Oeste 0 -- -- 76
2020-01-16 22:00:00 10.6 10 Oeste 18 Oeste 0 -- -- 83
2020-01-16 21:00:00 12.6 2 Noroeste 9 Norte 0 -- -- 85
2020-01-16 20:00:00 12.8 8 Noroeste 10 Noroeste 0 -- -- 88
2020-01-16 19:00:00 13.8 5 Oeste 26 Sur 0 -- -- 84
2020-01-16 18:00:00 14.8 20 Sur 32 Sur 0 -- -- 84
2020-01-16 17:00:00 14.8 27 Sur 31 Sur 0 -- -- 86
2020-01-16 16:00:00 14.8 23 Sudeste 26 Sudeste 0 -- -- 86
2020-01-16 15:00:00 14.4 18 Sudeste 22 Sudeste 0 -- -- 82
2020-01-16 14:00:00 14.5 19 Sudeste 22 Sudeste 0 -- -- 83
2020-01-16 13:00:00 14.2 17 Sudeste 19 Sudeste 0 -- -- 75
2020-01-16 12:00:00 16.2 3 Sur 10 Oeste 0 -- -- 53
2020-01-16 11:00:00 12.1 6 Noroeste 16 Oeste 0 -- -- 56
2020-01-16 10:00:00 10 6 Noroeste 21 Oeste 0 -- -- 61
2020-01-16 09:00:00 9.2 10 Oeste 20 Oeste 0 -- -- 59
2020-01-16 08:00:00 8.6 11 Noroeste 17 Oeste 0 -- -- 61
2020-01-16 07:00:00 8.1 9 Oeste 17 Oeste 0 -- -- 66
2020-01-16 06:00:00 7.8 14 Noroeste 20 Noroeste 0 -- -- 68
2020-01-16 05:00:00 7.6 13 Noroeste 18 Oeste 0 -- -- 69
2020-01-16 04:00:00 7.9 10 Noroeste 20 Noroeste 0 -- -- 72
2020-01-16 03:00:00 8.4 12 Noroeste 21 Oeste 0 -- -- 73
2020-01-16 02:00:00 9 16 Oeste 21 Oeste 0 -- -- 70
2020-01-16 01:00:00 9 2 Oeste 22 Noroeste 0 -- -- 78
2020-01-16 00:00:00 9.9 17 Oeste 21 Oeste 0 -- -- 78
2020-01-15 23:00:00 9.8 16 Noroeste 20 Oeste 0 -- -- 81
2020-01-15 22:00:00 10.2 12 Noroeste 21 Oeste 0 -- -- 83
2020-01-15 21:00:00 11.7 9 Oeste 14 Oeste 0 -- -- 82
2020-01-15 20:00:00 12.7 9 Oeste 12 Oeste 0 -- -- 85
2020-01-15 19:00:00 13.5 3 Oeste 27 Sur 0 -- -- 84
2020-01-15 18:00:00 14.6 21 Sur 28 Sur 0 -- -- 88
2020-01-15 17:00:00 14.5 23 Sudeste 27 Sudeste 0 -- -- 84
2020-01-15 16:00:00 14.5 21 Sudeste 24 Sudeste 0 -- -- 82
2020-01-15 15:00:00 14.3 17 Sudeste 19 Sudeste 0 -- -- 73
2020-01-15 14:00:00 14.4 11 Sudeste 13 Sudeste 0 -- -- 66
2020-01-15 13:00:00 16 5 Nordeste 9 Nordeste 0 -- -- 56
2020-01-15 12:00:00 14.3 3 Norte 10 Noroeste 0 -- -- 57
2020-01-15 11:00:00 11.8 8 Noroeste 16 Oeste 0 -- -- 61
2020-01-15 10:00:00 9.6 11 Oeste 18 Oeste 0 -- -- 70
2020-01-15 09:00:00 6.8 12 Noroeste 17 Noroeste 0 -- -- 77
2020-01-15 08:00:00 7.4 11 Noroeste 18 Oeste 0 -- -- 76
2020-01-15 07:00:00 8 14 Oeste 19 Oeste 0 -- -- 73
2020-01-15 06:00:00 7.7 17 Oeste 20 Oeste 0 -- -- 73
2020-01-15 05:00:00 7.7 12 Oeste 16 Oeste 0 -- -- 74
2020-01-15 04:00:00 8.2 5 Oeste 13 Oeste 0 -- -- 80
2020-01-15 03:00:00 8.4 6 Oeste 11 Oeste 0 -- -- 80
2020-01-15 02:00:00 8.5 2 Noroeste 10 Oeste 0 -- -- 81
2020-01-15 01:00:00 9.5 7 Oeste 17 Oeste 0 -- -- 81
2020-01-15 00:00:00 9.1 11 Oeste 18 Noroeste 0 -- -- 78
2020-01-14 23:00:00 10 13 Oeste 17 Oeste 0 -- -- 84
2020-01-14 22:00:00 10.2 10 Noroeste 13 Noroeste 0 -- -- 87
2020-01-14 21:00:00 11.5 4 Noroeste 9 Oeste 0 -- -- 84
2020-01-14 20:00:00 12.4 6 Noroeste 12 Noroeste 0 -- -- 81
2020-01-14 19:00:00 13.5 7 Noroeste 15 Noroeste 0 -- -- 77
2020-01-14 18:00:00 14.9 0 Calma 10 Sur 0 -- -- 70
2020-01-14 17:00:00 15.3 13 Sur 21 Sur 0 -- -- 74
2020-01-14 16:00:00 14.5 11 Sudeste 23 Sudeste 0 -- -- 77
2020-01-14 15:00:00 13.8 21 Sudeste 24 Sudeste 0 -- -- 80
2020-01-14 14:00:00 13.8 13 Sudeste 16 Sudeste 0 -- -- 70
2020-01-14 13:00:00 14.2 5 Este 9 Este 0 -- -- 57
2020-01-14 12:00:00 12.9 4 Noroeste 11 Noroeste 0 -- -- 52
2020-01-14 11:00:00 10.3 9 Noroeste 13 Oeste 0 -- -- 65
2020-01-14 10:00:00 7 6 Noroeste 15 Oeste 0 -- -- 73
2020-01-14 09:00:00 5.8 10 Noroeste 22 Oeste 0 -- -- 78
2020-01-14 08:00:00 7.3 9 Oeste 17 Oeste 0 -- -- 75
2020-01-14 07:00:00 6.3 6 Noroeste 15 Oeste 0 -- -- 82
2020-01-14 06:00:00 6.3 11 Oeste 17 Oeste 0 -- -- 85
2020-01-14 05:00:00 6.8 6 Noroeste 13 Noroeste 0 -- -- 78
2020-01-14 04:00:00 6.8 9 Noroeste 13 Noroeste 0 -- -- 84
2020-01-14 03:00:00 6.8 6 Noroeste 13 Oeste 0 -- -- 82
2020-01-14 02:00:00 7.3 8 Noroeste 13 Oeste 0 -- -- 87
2020-01-14 01:00:00 8.8 7 Oeste 15 Noroeste 0 -- -- 82
2020-01-14 00:00:00 9 12 Oeste 17 Oeste 0 -- -- 83
2020-01-13 23:00:00 10.7 15 Sudoeste 19 Sudoeste 0 -- -- 81
2020-01-13 22:00:00 10.8 10 Oeste 22 Oeste 0 -- -- 78
2020-01-13 21:00:00 12.4 16 Oeste 31 Oeste 0 -- -- 75
2020-01-13 20:00:00 12.9 18 Oeste 28 Oeste 0 -- -- 73
2020-01-13 19:00:00 13.1 9 Oeste 16 Oeste 0 -- -- 73
2020-01-13 18:00:00 14.6 3 Sudoeste 31 Sur 0 -- -- 65
2020-01-13 17:00:00 14.9 26 Sur 44 Sudeste 0 -- -- 67
2020-01-13 16:00:00 14.2 33 Sudeste 52 Sudeste 0 -- -- 76
2020-01-13 15:00:00 14.1 37 Sur 45 Sudeste 0 -- -- 80
2020-01-13 14:00:00 14.1 32 Sudeste 38 Sudeste 0 -- -- 78
2020-01-13 13:00:00 14.6 13 Sur 26 Sudeste 0 -- -- 69
2020-01-13 12:00:00 13.5 3 Norte 9 Noroeste 0 -- -- 63
2020-01-13 11:00:00 9.8 7 Noroeste 17 Oeste 0 -- -- 69
2020-01-13 10:00:00 7 11 Noroeste 18 Oeste 0 -- -- 75
2020-01-13 09:00:00 5.9 16 Oeste 20 Oeste 0 -- -- 78
2020-01-13 08:00:00 5.6 15 Oeste 20 Oeste 0 -- -- 78
2020-01-13 07:00:00 5.2 9 Noroeste 14 Noroeste 0 -- -- 81
2020-01-13 06:00:00 5.3 9 Noroeste 17 Oeste 0 -- -- 83
2020-01-13 05:00:00 5.8 13 Noroeste 16 Oeste 0 -- -- 82
2020-01-13 04:00:00 6 10 Noroeste 20 Oeste 0 -- -- 82
2020-01-13 03:00:00 7 8 Oeste 14 Oeste 0 -- -- 80
2020-01-13 02:00:00 6.8 9 Noroeste 15 Noroeste 0 -- -- 85
2020-01-13 01:00:00 8.2 11 Noroeste 22 Noroeste 0 -- -- 80
2020-01-13 00:00:00 8.4 17 Noroeste 22 Noroeste 0 -- -- 79
2020-01-12 23:00:00 9.9 10 Noroeste 17 Oeste 0 -- -- 81
2020-01-12 22:00:00 10.8 10 Oeste 17 Oeste 0 -- -- 82
2020-01-12 21:00:00 11.2 8 Oeste 16 Oeste 0 -- -- 78
2020-01-12 20:00:00 12.8 13 Oeste 17 Oeste 0 -- -- 78
2020-01-12 19:00:00 14 10 Oeste 15 Sudoeste 0 -- -- 65
2020-01-12 18:00:00 15 13 Sur 28 Sudeste 0 -- -- 71
2020-01-12 17:00:00 14.8 25 Sudeste 32 Sudeste 0 -- -- 81
2020-01-12 16:00:00 14.6 28 Sudeste 36 Sur 0 -- -- 82
2020-01-12 15:00:00 14.4 30 Sur 33 Sur 0 -- -- 81
2020-01-12 14:00:00 14.3 23 Sudeste 25 Sudeste 0 -- -- 78
2020-01-12 13:00:00 14.3 9 Sudeste 12 Sudeste 0 -- -- 70
2020-01-12 12:00:00 14.1 3 Este 9 Noroeste 0 -- -- 58
2020-01-12 11:00:00 11.1 4 Noroeste 20 Oeste 0 -- -- 67
2020-01-12 10:00:00 8 12 Noroeste 17 Oeste 0 -- -- 75
2020-01-12 09:00:00 6.6 13 Oeste 22 Oeste 0 -- -- 81
2020-01-12 08:00:00 5.9 12 Oeste 16 Oeste 0 -- -- 78
2020-01-12 07:00:00 7.1 10 Oeste 18 Oeste 0 -- -- 77
2020-01-12 06:00:00 6.4 12 Oeste 18 Noroeste 0 -- -- 80
2020-01-12 05:00:00 6.7 4 Noroeste 17 Noroeste 0 -- -- 82
2020-01-12 04:00:00 6.8 8 Noroeste 15 Noroeste 0 -- -- 81
2020-01-12 03:00:00 7.8 13 Noroeste 18 Noroeste 0 -- -- 80
2020-01-12 02:00:00 8.7 10 Noroeste 15 Noroeste 0 -- -- 78
2020-01-12 01:00:00 8.9 9 Noroeste 17 Noroeste 0 -- -- 79
2020-01-12 00:00:00 9.6 14 Noroeste 18 Oeste 0 -- -- 79
2020-01-11 23:00:00 10.4 15 Oeste 18 Oeste 0 -- -- 78
2020-01-11 22:00:00 10.9 16 Oeste 19 Oeste 0 -- -- 77
2020-01-11 21:00:00 11.9 10 Noroeste 21 Nordeste 0 -- -- 79
2020-01-11 20:00:00 14 14 Nordeste 27 Este 0 -- -- 77
2020-01-11 19:00:00 14.1 23 Nordeste 29 Este 0 -- -- 76
2020-01-11 18:00:00 14.5 21 Este 24 Este 0 -- -- 71
2020-01-11 17:00:00 14.9 18 Nordeste 28 Nordeste 0 -- -- 65
2020-01-11 16:00:00 15 21 Nordeste 27 Nordeste 0 -- -- 65
2020-01-11 15:00:00 15 21 Nordeste 26 Nordeste 0 -- -- 64
2020-01-11 14:00:00 15.1 21 Nordeste 27 Este 0 -- -- 61
2020-01-11 13:00:00 16 10 Nordeste 20 Norte 0 -- -- 57
2020-01-11 12:00:00 15.2 11 Norte 21 Noroeste 0 -- -- 57
2020-01-11 11:00:00 13.4 8 Norte 18 Noroeste 0 -- -- 59
2020-01-11 10:00:00 12.4 11 Noroeste 21 Noroeste 0 -- -- 61
2020-01-11 09:00:00 12.2 14 Norte 23 Norte 0 -- -- 62
2020-01-11 08:00:00 12.5 12 Norte 27 Norte 0 -- -- 62
2020-01-11 07:00:00 12.6 16 Norte 27 Norte 0 -- -- 61
2020-01-11 06:00:00 12.5 12 Norte 26 Noroeste 0 -- -- 62
2020-01-11 05:00:00 12.5 14 Noroeste 29 Noroeste 0 -- -- 64
2020-01-11 04:00:00 12.3 11 Noroeste 17 Noroeste 0 -- -- 63
2020-01-11 03:00:00 12.1 11 Noroeste 23 Norte 0 -- -- 64
2020-01-11 02:00:00 12.1 14 Norte 20 Noroeste 0 -- -- 62
2020-01-11 01:00:00 11.4 5 Noroeste 15 Norte 0 -- -- 65
2020-01-11 00:00:00 12 13 Norte 26 Norte 0 -- -- 60
2020-01-10 23:00:00 11.8 9 Norte 24 Norte 0 -- -- 62
2020-01-10 22:00:00 11.1 9 Norte 14 Noroeste 0 -- -- 67
2020-01-10 21:00:00 11.4 4 Oeste 17 Oeste 0 -- -- 83
2020-01-10 20:00:00 11.1 12 Oeste 18 Oeste 0 -- -- 84
2020-01-10 19:00:00 13.7 4 Norte 19 Nordeste 0 -- -- 78
2020-01-10 18:00:00 14.5 14 Nordeste 25 Este 0 -- -- 78
2020-01-10 17:00:00 14.7 17 Este 28 Este 0 -- -- 76
2020-01-10 16:00:00 14.9 26 Este 29 Este 0 -- -- 73
2020-01-10 15:00:00 15.3 15 Nordeste 30 Nordeste 0 -- -- 72
2020-01-10 14:00:00 14.8 9 Sudeste 14 Sudeste 0 -- -- 71
2020-01-10 13:00:00 14.1 9 Sudeste 13 Este 0 -- -- 75
2020-01-10 12:00:00 14.7 2 Norte 11 Oeste 0 -- -- 67
2020-01-10 11:00:00 12.5 9 Oeste 13 Oeste 0 -- -- 73
2020-01-10 10:00:00 9.7 7 Oeste 14 Oeste 0 -- -- 80
2020-01-10 09:00:00 8.2 6 Noroeste 16 Noroeste 0 -- -- 87
2020-01-10 08:00:00 7.8 4 Noroeste 25 Sudoeste 0 -- -- 86
2020-01-10 07:00:00 8.5 6 Oeste 12 Oeste 0 -- -- 86
2020-01-10 06:00:00 8.3 2 Oeste 9 Oeste 0 -- -- 89
2020-01-10 05:00:00 8.7 5 Noroeste 8 Noroeste 0 -- -- 90
2020-01-10 04:00:00 9.4 3 Oeste 9 Oeste 0 -- -- 89
2020-01-10 03:00:00 9.4 4 Oeste 12 Oeste 0 -- -- 88
2020-01-10 02:00:00 10.8 11 Oeste 19 Oeste 0 -- -- 88
2020-01-10 01:00:00 9.7 14 Noroeste 19 Noroeste 0 -- -- 88
2020-01-10 00:00:00 11.9 11 Oeste 18 Oeste 0 -- -- 81
2020-01-09 23:00:00 11.5 9 Sudoeste 14 Sudoeste 0 -- -- 83
2020-01-09 22:00:00 11.8 9 Oeste 13 Oeste 0 -- -- 87
2020-01-09 21:00:00 11.4 5 Noroeste 10 Noroeste 0 -- -- 89
2020-01-09 20:00:00 11.6 10 Noroeste 19 Sur 0 -- -- 85
2020-01-09 19:00:00 13.4 15 Sur 25 Sur 0 -- -- 85
2020-01-09 18:00:00 13.9 20 Sur 25 Sudeste 0 -- -- 83
2020-01-09 17:00:00 14.2 18 Sudeste 24 Sudeste 0 -- -- 81
2020-01-09 16:00:00 14.4 18 Sudeste 21 Este 0 -- -- 78
2020-01-09 15:00:00 14.6 17 Sudeste 19 Sudeste 0 -- -- 74
2020-01-09 14:00:00 14.6 10 Este 12 Este 0 -- -- 69
2020-01-09 13:00:00 15.1 5 Nordeste 8 Noroeste 0 -- -- 66
2020-01-09 12:00:00 13.7 6 Noroeste 10 Noroeste 0 -- -- 70
2020-01-09 11:00:00 11.1 9 Noroeste 14 Noroeste 0 -- -- 77
2020-01-09 10:00:00 9.8 13 Noroeste 20 Oeste 0 -- -- 80
2020-01-09 09:00:00 8.7 15 Oeste 21 Oeste 0 -- -- 81
2020-01-09 08:00:00 8.4 15 Noroeste 18 Noroeste 0 -- -- 82
2020-01-09 07:00:00 9.1 13 Oeste 18 Noroeste 0 -- -- 81
2020-01-09 06:00:00 9.7 13 Noroeste 18 Oeste 0 -- -- 80
2020-01-09 05:00:00 9.2 14 Oeste 18 Oeste 0 -- -- 83
2020-01-09 04:00:00 9.4 15 Oeste 20 Oeste 0 -- -- 84
2020-01-09 03:00:00 9.5 10 Noroeste 15 Noroeste 0 -- -- 85
2020-01-09 02:00:00 9.8 14 Oeste 24 Oeste 0 -- -- 85
2020-01-09 01:00:00 9.6 9 Noroeste 21 Oeste 0 -- -- 88
2020-01-09 00:00:00 9.8 15 Oeste 20 Oeste 0 -- -- 88
2020-01-08 23:00:00 9.9 12 Noroeste 16 Oeste 0 -- -- 89
2020-01-08 22:00:00 10.2 9 Noroeste 13 Oeste 0 -- -- 89
2020-01-08 21:00:00 10.7 8 Oeste 15 Oeste 0 -- -- 90
2020-01-08 20:00:00 11.3 9 Oeste 12 Oeste 0 -- -- 90
2020-01-08 19:00:00 12.7 4 Noroeste 5 Noroeste 0 -- -- 86
2020-01-08 18:00:00 13.2 2 Norte 5 Nordeste 0 -- -- 83
2020-01-08 17:00:00 13.6 3 Nordeste 6 Este 0 -- -- 83
2020-01-08 16:00:00 13.6 4 Nordeste 10 Nordeste 0 -- -- 84
2020-01-08 15:00:00 14.1 6 Nordeste 15 Nordeste 0 -- -- 83
2020-01-08 14:00:00 14 12 Nordeste 18 Nordeste 0 -- -- 81
2020-01-08 13:00:00 13.6 13 Este 15 Este 0 -- -- 77
2020-01-08 12:00:00 13 3 Nordeste 8 Noroeste 0 -- -- 73
2020-01-08 11:00:00 10.3 4 Noroeste 10 Oeste 0 -- -- 74
2020-01-08 10:00:00 8.8 8 Oeste 15 Oeste 0 -- -- 76
2020-01-08 09:00:00 7.3 5 Noroeste 12 Noroeste 0 -- -- 84
2020-01-08 08:00:00 7.1 4 Oeste 12 Oeste 0 -- -- 85
2020-01-08 07:00:00 6.8 3 Oeste 15 Oeste 0 -- -- 86
2020-01-08 06:00:00 7.1 6 Oeste 13 Oeste 0 -- -- 84
2020-01-08 05:00:00 6.7 5 Oeste 14 Oeste 0 -- -- 87
2020-01-08 04:00:00 7.5 10 Oeste 15 Oeste 0 -- -- 90
2020-01-08 03:00:00 7.2 12 Oeste 18 Oeste 0 -- -- 93
2020-01-08 02:00:00 7.8 12 Oeste 17 Oeste 0 -- -- 92
2020-01-08 01:00:00 8.8 11 Oeste 15 Oeste 0 -- -- 90
2020-01-08 00:00:00 9.3 5 Oeste 18 Oeste 0 -- -- 90
2020-01-07 23:00:00 10 6 Oeste 13 Oeste 0 -- -- 88
2020-01-07 22:00:00 9.7 7 Oeste 15 Oeste 0 -- -- 90
2020-01-07 21:00:00 10.9 9 Oeste 19 Oeste 0 -- -- 89
2020-01-07 20:00:00 11.4 8 Oeste 13 Oeste 0 -- -- 90
2020-01-07 19:00:00 12.8 11 Sudoeste 25 Sudeste 0 -- -- 85
2020-01-07 18:00:00 13.9 23 Sudeste 26 Sudeste 0 -- -- 85
2020-01-07 17:00:00 14 22 Sudeste 26 Sudeste 0 -- -- 84
2020-01-07 16:00:00 13.8 19 Sudeste 22 Sudeste 0 -- -- 85
2020-01-07 15:00:00 13.4 14 Sudeste 17 Sur 0 -- -- 82
2020-01-07 14:00:00 13.4 11 Sudeste 13 Sudeste 0 -- -- 78
2020-01-07 13:00:00 14 6 Este 8 Nordeste 0 -- -- 72
2020-01-07 12:00:00 13.5 4 Nordeste 9 Oeste 0 -- -- 62
2020-01-07 11:00:00 10.8 8 Oeste 13 Oeste 0 -- -- 66
2020-01-07 10:00:00 8.9 8 Oeste 13 Oeste 0 -- -- 71
2020-01-07 09:00:00 7.3 0 Calma 15 Oeste 0 -- -- 74
2020-01-07 08:00:00 6.3 9 Noroeste 18 Oeste 0 -- -- 78
2020-01-07 07:00:00 6.2 10 Noroeste 15 Oeste 0 -- -- 81
2020-01-07 06:00:00 6.2 13 Oeste 20 Noroeste 0 -- -- 85
2020-01-07 05:00:00 7.3 13 Oeste 19 Oeste 0 -- -- 75
2020-01-07 04:00:00 7.2 10 Noroeste 21 Oeste 0 -- -- 85
2020-01-07 03:00:00 7.8 12 Noroeste 16 Oeste 0 -- -- 86
2020-01-07 02:00:00 8.3 11 Oeste 19 Oeste 0 -- -- 84
2020-01-07 01:00:00 8 14 Oeste 18 Oeste 0 -- -- 84
2020-01-07 00:00:00 9.2 9 Oeste 15 Oeste 0 -- -- 85
2020-01-06 23:00:00 9.3 9 Oeste 14 Oeste 0 -- -- 85
2020-01-06 22:00:00 10.1 8 Oeste 18 Oeste 0 -- -- 84
2020-01-06 21:00:00 11.3 13 Oeste 18 Sudoeste 0 -- -- 83
2020-01-06 20:00:00 11.6 14 Sudoeste 17 Sudoeste 0 -- -- 83
2020-01-06 19:00:00 13.3 7 Sur 18 Sudeste 0 -- -- 78
2020-01-06 18:00:00 14 16 Sudeste 20 Sudeste 0 -- -- 78
2020-01-06 17:00:00 14.3 17 Sudeste 20 Sudeste 0 -- -- 76
2020-01-06 16:00:00 14.1 17 Sudeste 19 Sudeste 0 -- -- 76
2020-01-06 15:00:00 14.1 13 Este 15 Este 0 -- -- 78
2020-01-06 14:00:00 14 8 Este 9 Este 0 -- -- 75
2020-01-06 13:00:00 14.5 6 Nordeste 8 Nordeste 0 -- -- 63
2020-01-06 12:00:00 13 4 Noroeste 10 Oeste 0 -- -- 64
2020-01-06 11:00:00 10.1 5 Noroeste 11 Noroeste 0 -- -- 74
2020-01-06 10:00:00 7.2 8 Noroeste 19 Noroeste 0 -- -- 80